Time;durP1;ratioP1;P1;durP2;ratioP2;P2;SDS_P1;SDS_P2;PMS_P1;PMS_P2;Temp;Humidity;BMP_temperature;BMP_pressure;BME280_temperature;BME280_humidity;BME280_pressure;Samples;Min_cycle;Max_cycle;Signal;HPM_P1;HPM_P2
2022/04/21 00:00:31;;;;;;;0.17;0.17;;;11.40;99.70;;;;;;5007919;28;20129;-68
2022/04/21 00:02:56;;;;;;;1.33;1.27;;;11.40;99.90;;;;;;5009964;28;20129;-68
2022/04/21 00:05:22;;;;;;;0.52;0.52;;;11.50;99.90;;;;;;5013383;28;20049;-68
2022/04/21 00:07:48;;;;;;;0.10;0.10;;;11.50;99.90;;;;;;5013434;28;20038;-68
2022/04/21 00:10:15;;;;;;;0.93;0.90;;;11.40;99.90;;;;;;5012423;28;20104;-68
2022/04/21 00:12:41;;;;;;;0.28;0.28;;;11.40;99.90;;;;;;5008199;28;20074;-68
2022/04/21 00:15:07;;;;;;;0.30;0.30;;;11.50;99.90;;;;;;5003988;28;20073;-68
2022/04/21 00:17:33;;;;;;;0.20;0.20;;;11.40;99.90;;;;;;5010640;28;20037;-67
2022/04/21 00:19:59;;;;;;;0.30;0.30;;;11.40;99.90;;;;;;5013246;28;20048;-68
2022/04/21 00:25:09;;;;;;;0.20;0.20;;;11.50;99.90;;;;;;5009172;28;20504;-68
2022/04/21 00:27:39;;;;;;;0.10;0.10;;;11.40;99.90;;;;;;5009534;28;20042;-67
2022/04/21 00:30:06;;;;;;;1.25;1.23;;;11.50;99.90;;;;;;5010155;28;20375;-67
2022/04/21 00:32:33;;;;;;;0.03;0.03;;;11.40;99.90;;;;;;5008589;28;20545;-68
2022/04/21 00:34:59;;;;;;;0.65;0.65;;;11.40;99.90;;;;;;5004918;28;20050;-68
2022/04/21 00:37:24;;;;;;;0.28;0.28;;;11.40;99.90;;;;;;5022745;28;20472;-67
2022/04/21 00:39:50;;;;;;;0.20;0.20;;;11.40;99.90;;;;;;5005202;28;20166;-68
2022/04/21 00:42:16;;;;;;;1.45;1.35;;;11.30;99.90;;;;;;5010837;28;20481;-67
2022/04/21 00:44:41;;;;;;;0.00;0.00;;;11.30;99.90;;;;;;5007768;28;20077;-67
2022/04/21 00:47:07;;;;;;;0.70;0.52;;;11.30;99.90;;;;;;5013558;28;20054;-68
2022/04/21 00:49:34;;;;;;;0.43;0.40;;;11.20;99.90;;;;;;5004281;28;20062;-67
2022/04/21 00:52:01;;;;;;;0.10;0.10;;;11.30;99.90;;;;;;5000029;28;20045;-68
2022/04/21 00:54:31;;;;;;;0.20;0.20;;;11.20;99.90;;;;;;5006750;28;20100;-67
2022/04/21 00:56:59;;;;;;;0.43;0.38;;;11.20;99.90;;;;;;5008347;28;20050;-68
2022/04/21 00:59:25;;;;;;;0.50;0.47;;;11.20;99.90;;;;;;5006997;28;20081;-67
2022/04/21 01:04:36;;;;;;;0.45;0.45;;;11.20;99.90;;;;;;5011957;28;20133;-68
2022/04/21 01:07:02;;;;;;;0.00;0.00;;;11.00;99.90;;;;;;5012514;28;20038;-67
2022/04/21 01:09:28;;;;;;;0.10;0.10;;;11.10;99.90;;;;;;5017185;28;20045;-68
2022/04/21 01:11:53;;;;;;;0.43;0.43;;;11.10;99.90;;;;;;5004531;28;20052;-68
2022/04/21 01:14:20;;;;;;;0.32;0.32;;;11.10;99.90;;;;;;5000291;28;20038;-68
2022/04/21 01:16:46;;;;;;;1.23;0.85;;;11.10;99.90;;;;;;5008702;28;20042;-68
2022/04/21 01:19:12;;;;;;;0.22;0.22;;;11.10;99.90;;;;;;5012366;28;20096;-67
2022/04/21 01:21:37;;;;;;;0.13;0.13;;;11.10;99.90;;;;;;5001816;28;20054;-67
2022/04/21 01:24:04;;;;;;;0.10;0.10;;;11.00;99.90;;;;;;5005434;28;20046;-67
2022/04/21 01:26:34;;;;;;;0.35;0.35;;;10.90;99.90;;;;;;5009340;28;20053;-67
2022/04/21 01:29:07;;;;;;;0.10;0.10;;;10.90;99.90;;;;;;5011135;28;20097;-67
2022/04/21 01:31:32;;;;;;;0.60;0.57;;;10.90;99.90;;;;;;5009843;28;20038;-67
2022/04/21 01:33:58;;;;;;;0.20;0.20;;;10.90;99.90;;;;;;5009170;28;20042;-67
2022/04/21 01:36:24;;;;;;;0.25;0.25;;;10.90;99.90;;;;;;5010545;28;20046;-67
2022/04/21 01:41:34;;;;;;;1.65;0.95;;;10.80;99.90;;;;;;5010552;28;20141;-67
2022/04/21 01:44:00;;;;;;;0.20;0.20;;;10.80;99.90;;;;;;4999546;28;20113;-67
2022/04/21 01:46:25;;;;;;;0.15;0.15;;;10.80;99.90;;;;;;5010160;28;20038;-68
2022/04/21 01:48:51;;;;;;;0.35;0.35;;;10.80;99.90;;;;;;5010418;28;20042;-68
2022/04/21 01:51:16;;;;;;;0.10;0.10;;;10.80;99.90;;;;;;5008949;28;20046;-68
2022/04/21 01:53:42;;;;;;;0.08;0.08;;;10.80;99.90;;;;;;5002213;28;20206;-67
2022/04/21 01:56:08;;;;;;;1.45;1.17;;;10.70;99.90;;;;;;5005061;28;20057;-67
2022/04/21 01:58:33;;;;;;;1.00;0.85;;;10.70;99.90;;;;;;4995438;28;20085;-67
2022/04/21 02:00:59;;;;;;;0.43;0.43;;;10.70;99.90;;;;;;5006545;28;20450;-67
2022/04/21 02:03:24;;;;;;;0.40;0.40;;;10.60;99.90;;;;;;5005720;28;20041;-67
2022/04/21 02:05:50;;;;;;;0.85;0.35;;;10.70;99.90;;;;;;5010023;28;20074;-68
2022/04/21 02:08:15;;;;;;;0.68;0.68;;;10.60;99.90;;;;;;5010024;28;20414;-67
2022/04/21 02:10:41;;;;;;;0.20;0.20;;;10.60;99.90;;;;;;5009536;28;20046;-68
2022/04/21 02:13:07;;;;;;;1.00;0.90;;;10.60;99.90;;;;;;5037413;28;20119;-67
2022/04/21 02:15:33;;;;;;;0.10;0.10;;;10.60;99.90;;;;;;5005574;28;20474;-68
2022/04/21 02:18:01;;;;;;;0.47;0.47;;;10.60;99.90;;;;;;5008036;28;20104;-68
2022/04/21 02:20:26;;;;;;;0.00;0.00;;;10.50;99.90;;;;;;5011321;28;20128;-67
2022/04/21 02:22:52;;;;;;;27.50;1.30;;;10.50;99.90;;;;;;5005770;28;20128;-68
2022/04/21 02:25:17;;;;;;;0.00;0.00;;;10.40;99.90;;;;;;5007044;28;20490;-67
2022/04/21 02:27:47;;;;;;;0.10;0.10;;;10.50;99.90;;;;;;5007896;28;20046;-67
2022/04/21 02:30:14;;;;;;;0.75;0.75;;;10.50;99.90;;;;;;4994621;28;20034;-67
2022/04/21 02:32:40;;;;;;;2.17;1.55;;;10.50;99.90;;;;;;5006112;28;20050;-68
2022/04/21 02:35:07;;;;;;;0.90;0.65;;;10.50;99.90;;;;;;5017494;28;20397;-67
2022/04/21 02:37:41;;;;;;;0.10;0.10;;;10.50;99.90;;;;;;5006219;28;21143;-67
2022/04/21 02:40:07;;;;;;;0.85;0.85;;;10.50;99.90;;;;;;4999477;28;20073;-68
2022/04/21 02:42:33;;;;;;;0.65;0.65;;;10.50;99.90;;;;;;5009984;28;20054;-67
2022/04/21 02:44:59;;;;;;;0.68;0.52;;;10.50;99.90;;;;;;5002215;28;20469;-67
2022/04/21 02:47:25;;;;;;;0.90;0.57;;;10.40;99.90;;;;;;4997631;28;20452;-67
2022/04/21 02:49:51;;;;;;;0.88;0.52;;;10.30;99.90;;;;;;5007931;28;20048;-68
2022/04/21 02:52:17;;;;;;;0.00;0.00;;;10.20;99.90;;;;;;5009274;28;20103;-68
2022/04/21 02:57:30;;;;;;;0.40;0.40;;;10.30;99.90;;;;;;5007374;28;20077;-67
2022/04/21 02:59:59;;;;;;;0.57;0.57;;;10.30;99.90;;;;;;5007734;28;20042;-68
2022/04/21 03:02:25;;;;;;;0.15;0.15;;;10.40;99.90;;;;;;5010798;28;20397;-67
2022/04/21 03:04:52;;;;;;;9.18;1.05;;;10.40;99.90;;;;;;5010023;28;20049;-67
2022/04/21 03:07:20;;;;;;;0.57;0.55;;;10.50;99.90;;;;;;5001642;28;20042;-67
2022/04/21 03:09:46;;;;;;;0.20;0.20;;;10.40;99.90;;;;;;5009552;28;20509;-68
2022/04/21 03:12:12;;;;;;;0.10;0.10;;;10.50;99.90;;;;;;5009572;28;20046;-67
2022/04/21 03:14:39;;;;;;;0.10;0.10;;;10.50;99.90;;;;;;4997481;28;20088;-67
2022/04/21 03:17:05;;;;;;;0.28;0.28;;;10.40;99.90;;;;;;5010408;28;20081;-68
2022/04/21 03:19:31;;;;;;;0.10;0.10;;;10.40;99.90;;;;;;5004010;28;20144;-67
2022/04/21 03:24:41;;;;;;;0.82;0.52;;;10.40;99.90;;;;;;4996642;28;20414;-68
2022/04/21 03:27:06;;;;;;;0.40;0.40;;;10.40;99.90;;;;;;4998862;28;20049;-68
2022/04/21 03:29:35;;;;;;;0.55;0.55;;;10.40;99.90;;;;;;5008403;28;20548;-67
2022/04/21 03:32:01;;;;;;;0.10;0.10;;;10.40;99.90;;;;;;5007637;28;20091;-68
2022/04/21 03:34:27;;;;;;;0.20;0.20;;;10.50;99.90;;;;;;5022177;28;20057;-68
2022/04/21 03:36:52;;;;;;;0.43;0.43;;;10.60;99.90;;;;;;5003835;28;20042;-68
2022/04/21 03:39:20;;;;;;;0.90;0.90;;;10.50;99.90;;;;;;5001280;28;20101;-67
2022/04/21 03:41:46;;;;;;;0.80;0.80;;;10.60;99.90;;;;;;5010116;28;20046;-68
2022/04/21 03:44:12;;;;;;;0.20;0.20;;;10.50;99.90;;;;;;5005561;28;20045;-68
2022/04/21 03:46:38;;;;;;;0.35;0.30;;;10.40;99.90;;;;;;5001412;28;20041;-67
2022/04/21 03:49:07;;;;;;;0.10;0.10;;;10.30;99.90;;;;;;5002546;28;20038;-68
2022/04/21 03:51:33;;;;;;;0.20;0.20;;;10.20;99.90;;;;;;5009892;28;20044;-67
2022/04/21 03:53:59;;;;;;;1.70;1.20;;;10.40;99.90;;;;;;5005311;28;20061;-67
2022/04/21 03:56:26;;;;;;;0.10;0.10;;;10.20;99.90;;;;;;4998415;28;20058;-68
2022/04/21 03:58:52;;;;;;;0.50;0.40;;;10.20;99.90;;;;;;5007731;28;20504;-67
2022/04/21 04:01:19;;;;;;;0.30;0.30;;;10.20;99.90;;;;;;5008684;28;20065;-67
2022/04/21 04:03:44;;;;;;;0.38;0.38;;;10.10;99.90;;;;;;5008525;28;20053;-67
2022/04/21 04:11:39;;;;;;;0.20;0.20;;;10.10;99.90;;;;;;4998142;28;20101;-67
2022/04/21 04:14:08;;;;;;;0.30;0.30;;;10.00;99.90;;;;;;5003618;28;20042;-68
2022/04/21 04:16:37;;;;;;;0.25;0.25;;;10.00;99.90;;;;;;5008511;28;20458;-67
2022/04/21 04:19:07;;;;;;;0.10;0.10;;;9.90;99.90;;;;;;5002557;28;20193;-67
2022/04/21 04:21:34;;;;;;;0.10;0.10;;;10.00;99.90;;;;;;5007838;28;20034;-68
2022/04/21 04:23:59;;;;;;;0.52;0.52;;;10.00;99.90;;;;;;5003367;28;20386;-68
2022/04/21 04:26:25;;;;;;;0.00;0.00;;;10.00;99.90;;;;;;5005163;28;20053;-68
2022/04/21 04:28:50;;;;;;;0.10;0.10;;;9.90;99.90;;;;;;5004628;28;20042;-67
2022/04/21 04:31:16;;;;;;;2.75;0.55;;;9.90;99.90;;;;;;5011856;28;20064;-68
2022/04/21 04:33:42;;;;;;;0.20;0.20;;;9.90;99.90;;;;;;5009984;28;20080;-67
2022/04/21 04:36:10;;;;;;;0.30;0.30;;;9.90;99.90;;;;;;5010810;28;20049;-67
2022/04/21 04:38:36;;;;;;;0.10;0.10;;;9.90;99.90;;;;;;5009955;28;20046;-68
2022/04/21 04:42:16;;;;;;;0.50;0.50;;;9.90;99.90;;;;;;5012143;28;20103;-68
2022/04/21 04:43:47;;;;;;;0.65;0.57;;;9.80;99.90;;;;;;5008605;28;20046;-68
2022/04/21 04:48:57;;;;;;;0.10;0.10;;;9.70;99.90;;;;;;4999189;28;20053;-67
2022/04/21 04:51:22;;;;;;;0.47;0.47;;;9.80;99.90;;;;;;5007321;28;20046;-68
2022/04/21 04:53:48;;;;;;;1.98;1.08;;;9.70;99.90;;;;;;5005458;28;20529;-68
2022/04/21 04:56:14;;;;;;;0.10;0.10;;;9.80;99.90;;;;;;5008784;28;20140;-67
2022/04/21 04:58:40;;;;;;;0.22;0.22;;;9.80;99.90;;;;;;5010498;28;20132;-69
2022/04/21 05:01:06;;;;;;;0.10;0.10;;;9.80;99.90;;;;;;5013994;28;20045;-68
2022/04/21 05:03:32;;;;;;;0.85;0.85;;;9.80;99.90;;;;;;5012135;28;20053;-68
2022/04/21 05:05:57;;;;;;;0.22;0.22;;;9.80;99.90;;;;;;5010278;28;20066;-68
2022/04/21 05:08:23;;;;;;;0.20;0.20;;;9.80;99.90;;;;;;5005875;28;20046;-68
2022/04/21 05:10:48;;;;;;;0.47;0.47;;;9.80;99.90;;;;;;5002336;28;20121;-68
2022/04/21 05:13:14;;;;;;;0.20;0.20;;;9.80;99.90;;;;;;5011740;28;20057;-68
2022/04/21 05:15:39;;;;;;;0.10;0.10;;;9.80;99.90;;;;;;5010866;28;20052;-68
2022/04/21 05:18:05;;;;;;;0.10;0.10;;;9.70;99.90;;;;;;5010171;28;20038;-68
2022/04/21 05:20:31;;;;;;;0.20;0.20;;;9.70;99.90;;;;;;5008630;28;20482;-68
2022/04/21 05:23:04;;;;;;;0.20;0.20;;;9.80;99.90;;;;;;5012208;28;20382;-68
2022/04/21 05:25:31;;;;;;;0.17;0.15;;;9.80;99.90;;;;;;5004751;28;20038;-68
2022/04/21 05:27:57;;;;;;;0.13;0.13;;;9.90;99.90;;;;;;5018058;28;20058;-68
2022/04/21 05:33:10;;;;;;;0.17;0.17;;;9.90;99.90;;;;;;5005784;28;20123;-68
2022/04/21 05:35:36;;;;;;;0.65;0.65;;;10.00;99.90;;;;;;4996012;28;20038;-68
2022/04/21 05:38:02;;;;;;;0.10;0.10;;;9.90;99.90;;;;;;5007261;28;20038;-68
2022/04/21 05:40:28;;;;;;;0.30;0.30;;;9.90;99.90;;;;;;5006978;28;20139;-68
2022/04/21 05:42:57;;;;;;;3.20;0.63;;;10.00;99.90;;;;;;5010518;28;20124;-68
2022/04/21 05:45:23;;;;;;;0.30;0.30;;;10.10;99.90;;;;;;5009943;28;20049;-68
2022/04/21 05:47:49;;;;;;;0.45;0.45;;;10.10;99.90;;;;;;5005405;28;20038;-68
2022/04/21 05:50:15;;;;;;;0.10;0.10;;;10.10;99.90;;;;;;5004553;28;20069;-68
2022/04/21 05:52:44;;;;;;;0.57;0.57;;;10.20;99.90;;;;;;5011898;28;20073;-68
2022/04/21 05:55:10;;;;;;;0.90;0.90;;;10.20;99.90;;;;;;5000860;28;20061;-68
2022/04/21 05:57:38;;;;;;;1.45;0.65;;;10.20;99.90;;;;;;5003874;28;20088;-68
2022/04/21 06:00:04;;;;;;;0.10;0.10;;;10.20;99.90;;;;;;5010631;28;20053;-68
2022/04/21 06:02:30;;;;;;;0.10;0.10;;;10.20;99.90;;;;;;5004006;28;20401;-68
2022/04/21 06:04:59;;;;;;;0.00;0.00;;;10.20;99.90;;;;;;5009911;28;20054;-68
2022/04/21 06:07:24;;;;;;;0.00;0.00;;;10.30;99.90;;;;;;4998614;28;20052;-68
2022/04/21 06:09:50;;;;;;;0.10;0.10;;;10.40;99.90;;;;;;5011308;28;20050;-68
2022/04/21 06:12:17;;;;;;;0.57;0.55;;;10.40;99.90;;;;;;5003247;28;20557;-68
2022/04/21 06:14:44;;;;;;;0.10;0.10;;;10.50;99.90;;;;;;5005088;28;20042;-68
2022/04/21 06:17:10;;;;;;;0.10;0.10;;;10.40;99.90;;;;;;5012559;28;20481;-68
2022/04/21 06:19:36;;;;;;;0.57;0.57;;;10.40;99.90;;;;;;5012611;28;20100;-68
2022/04/21 06:22:02;;;;;;;0.50;0.50;;;10.50;99.90;;;;;;5007113;28;20398;-68
2022/04/21 06:24:27;;;;;;;0.10;0.10;;;10.50;99.90;;;;;;5000588;28;21724;-68
2022/04/21 06:26:53;;;;;;;0.03;0.03;;;10.60;99.90;;;;;;5007218;28;20566;-68
2022/04/21 06:29:18;;;;;;;0.10;0.10;;;10.70;99.90;;;;;;5014493;28;20038;-68
2022/04/21 06:31:45;;;;;;;0.32;0.32;;;10.80;99.90;;;;;;5009364;28;20046;-69
2022/04/21 06:34:11;;;;;;;0.28;0.28;;;10.80;99.90;;;;;;5011117;28;20050;-68
2022/04/21 06:36:36;;;;;;;0.10;0.10;;;10.80;99.90;;;;;;5008395;28;20421;-68
2022/04/21 06:39:03;;;;;;;0.25;0.25;;;10.80;99.90;;;;;;5008794;28;20053;-69
2022/04/21 06:41:29;;;;;;;1.17;0.85;;;11.00;99.90;;;;;;5000996;28;20059;-69
2022/04/21 06:49:22;;;;;;;0.10;0.10;;;11.10;99.90;;;;;;5008173;28;20045;-68
2022/04/21 06:51:48;;;;;;;0.20;0.20;;;11.20;99.90;;;;;;5011990;28;20041;-69
2022/04/21 06:54:13;;;;;;;0.10;0.10;;;11.30;99.90;;;;;;5010080;28;20056;-69
2022/04/21 06:56:39;;;;;;;0.00;0.00;;;11.50;99.90;;;;;;5004315;28;20149;-68
2022/04/21 06:59:07;;;;;;;0.55;0.52;;;11.50;99.90;;;;;;5000236;28;20081;-69
2022/04/21 07:01:33;;;;;;;0.25;0.25;;;11.60;99.90;;;;;;5006290;28;20506;-67
2022/04/21 07:03:59;;;;;;;0.10;0.10;;;11.70;99.90;;;;;;5008909;28;20173;-69
2022/04/21 07:06:24;;;;;;;0.22;0.22;;;11.80;99.90;;;;;;5007960;28;20041;-69
2022/04/21 07:08:50;;;;;;;0.03;0.03;;;11.70;99.90;;;;;;5008103;28;20983;-69
2022/04/21 07:11:15;;;;;;;0.10;0.10;;;11.80;99.90;;;;;;5008666;28;20046;-69
2022/04/21 07:13:41;;;;;;;0.10;0.10;;;11.80;99.90;;;;;;5040881;28;20046;-69
2022/04/21 07:16:07;;;;;;;0.63;0.63;;;12.00;99.90;;;;;;5005437;28;20058;-69
2022/04/21 07:18:32;;;;;;;0.00;0.00;;;12.00;99.90;;;;;;5009300;28;20420;-69
2022/04/21 07:21:00;;;;;;;0.20;0.20;;;12.10;99.90;;;;;;5008522;28;20438;-69
2022/04/21 07:23:26;;;;;;;0.13;0.13;;;12.20;99.90;;;;;;4994284;28;20556;-68
2022/04/21 07:25:51;;;;;;;0.10;0.10;;;12.30;99.40;;;;;;5004225;28;20128;-68
2022/04/21 07:28:17;;;;;;;0.10;0.10;;;12.40;99.20;;;;;;5006466;28;20042;-69
2022/04/21 07:30:42;;;;;;;0.10;0.10;;;12.50;99.30;;;;;;5008776;28;20205;-68
2022/04/21 07:33:08;;;;;;;0.15;0.15;;;12.50;99.10;;;;;;5010763;28;20042;-68
2022/04/21 07:35:34;;;;;;;0.20;0.20;;;12.50;98.90;;;;;;5008661;28;20565;-68
2022/04/21 07:38:00;;;;;;;0.17;0.17;;;12.70;99.30;;;;;;5010175;28;20053;-68
2022/04/21 07:40:26;;;;;;;1.65;0.50;;;12.80;98.70;;;;;;5023750;28;20055;-68
2022/04/21 07:42:51;;;;;;;0.05;0.05;;;12.80;98.90;;;;;;5008450;28;20034;-68
2022/04/21 07:45:17;;;;;;;0.47;0.47;;;12.90;98.70;;;;;;5010343;28;20046;-68
2022/04/21 07:47:42;;;;;;;0.10;0.10;;;13.00;97.70;;;;;;5009945;28;20053;-68
2022/04/21 07:50:08;;;;;;;0.00;0.00;;;13.00;97.40;;;;;;5009681;28;20049;-69
2022/04/21 07:55:25;;;;;;;0.40;0.38;;;13.10;97.50;;;;;;5007563;28;20078;-69
2022/04/21 07:57:55;;;;;;;0.00;0.00;;;13.10;97.70;;;;;;5010066;28;20096;-69
2022/04/21 08:00:21;;;;;;;0.35;0.35;;;13.30;97.80;;;;;;5008936;28;20046;-69
2022/04/21 08:02:48;;;;;;;0.10;0.10;;;13.40;97.00;;;;;;5009017;28;20050;-69
2022/04/21 08:05:16;;;;;;;0.20;0.20;;;13.40;96.70;;;;;;5010275;28;20053;-69
2022/04/21 08:07:42;;;;;;;0.10;0.10;;;13.40;96.70;;;;;;5008785;28;20049;-69
2022/04/21 08:10:09;;;;;;;0.00;0.00;;;13.50;96.00;;;;;;5015932;28;20143;-68
2022/04/21 08:12:53;;;;;;;0.20;0.20;;;13.70;95.20;;;;;;5011925;28;20100;-69
2022/04/21 08:15:28;;;;;;;0.32;0.32;;;13.70;94.90;;;;;;5028440;28;20461;-68
2022/04/21 08:17:57;;;;;;;0.13;0.13;;;13.70;94.20;;;;;;5013235;28;20046;-69
2022/04/21 08:20:24;;;;;;;0.15;0.15;;;13.80;93.90;;;;;;5025414;28;20133;-69
2022/04/21 08:22:49;;;;;;;0.10;0.10;;;13.90;95.20;;;;;;5023239;28;20124;-69
2022/04/21 08:33:28;;;;;;;0.20;0.20;;;14.20;94.90;;;;;;5005109;28;20053;-68
2022/04/21 08:35:58;;;;;;;0.10;0.10;;;14.40;94.60;;;;;;5012944;28;20045;-68
2022/04/21 08:38:28;;;;;;;0.20;0.20;;;14.70;95.50;;;;;;5044734;28;20037;-68
2022/04/21 08:40:54;;;;;;;0.10;0.10;;;15.10;94.50;;;;;;5044646;28;20501;-68
2022/04/21 08:43:21;;;;;;;0.13;0.13;;;15.40;93.90;;;;;;5013520;28;20046;-68
2022/04/21 08:45:49;;;;;;;1.15;0.60;;;16.10;93.30;;;;;;5001018;28;21072;-69
2022/04/21 08:48:17;;;;;;;0.20;0.20;;;16.80;92.80;;;;;;5006342;28;20033;-68
2022/04/21 08:50:43;;;;;;;0.10;0.10;;;16.90;92.50;;;;;;5025752;28;20037;-69
2022/04/21 08:53:10;;;;;;;0.00;0.00;;;17.10;92.20;;;;;;5012633;28;20088;-68
2022/04/21 08:55:36;;;;;;;0.10;0.10;;;17.30;91.40;;;;;;5012045;28;20410;-68
2022/04/21 08:58:03;;;;;;;0.13;0.13;;;17.70;90.40;;;;;;5006597;28;20161;-69
2022/04/21 09:00:31;;;;;;;0.35;0.30;;;18.10;90.40;;;;;;5007590;28;20428;-68
2022/04/21 09:02:57;;;;;;;0.05;0.05;;;18.40;90.00;;;;;;5011788;28;20053;-69
2022/04/21 09:05:26;;;;;;;0.98;0.35;;;18.80;88.70;;;;;;4999365;28;20555;-69
2022/04/21 09:07:52;;;;;;;0.20;0.20;;;19.10;85.30;;;;;;5044826;28;20045;-69
2022/04/21 09:10:20;;;;;;;0.20;0.20;;;19.10;85.70;;;;;;5023224;28;20390;-68
2022/04/21 09:12:52;;;;;;;0.10;0.10;;;19.20;85.60;;;;;;5018899;28;21007;-69
2022/04/21 09:15:20;;;;;;;0.20;0.20;;;19.00;83.70;;;;;;5003944;28;20486;-69
2022/04/21 09:17:47;;;;;;;0.10;0.10;;;19.40;84.00;;;;;;4999486;28;20046;-69
2022/04/21 09:20:16;;;;;;;0.00;0.00;;;19.60;85.30;;;;;;5002649;28;20049;-69
2022/04/21 09:22:46;;;;;;;0.08;0.08;;;20.00;83.00;;;;;;5008991;28;20060;-68
2022/04/21 09:25:12;;;;;;;0.00;0.00;;;20.20;83.70;;;;;;4998803;28;20049;-69
2022/04/21 09:27:45;;;;;;;0.00;0.00;;;20.50;82.30;;;;;;5011639;28;20425;-68
2022/04/21 09:30:12;;;;;;;;;;;20.40;82.10;;;;;;5010050;28;20462;-68
2022/04/21 09:32:40;;;;;;;0.00;0.00;;;20.40;80.70;;;;;;5007031;28;19921;-68
2022/04/21 09:35:08;;;;;;;0.10;0.10;;;20.50;79.10;;;;;;5010942;28;20050;-68
2022/04/21 09:37:48;;;;;;;0.00;0.00;;;20.20;79.80;;;;;;5010195;28;20100;-67
2022/04/21 09:40:15;;;;;;;0.10;0.10;;;20.20;81.00;;;;;;5000765;28;20053;-68
2022/04/21 09:42:41;;;;;;;0.35;0.35;;;20.40;81.50;;;;;;5006662;28;20046;-68
2022/04/21 09:47:54;;;;;;;0.00;0.00;;;20.80;80.80;;;;;;5005885;28;20053;-68
2022/04/21 09:50:21;;;;;;;0.20;0.20;;;20.60;80.90;;;;;;5008941;28;20053;-67
2022/04/21 09:52:51;;;;;;;0.15;0.15;;;20.90;81.40;;;;;;5002393;28;20073;-68
2022/04/21 09:55:27;;;;;;;0.00;0.00;;;20.80;79.80;;;;;;5000292;28;20058;-68
2022/04/21 09:58:05;;;;;;;2.38;0.43;;;20.80;79.70;;;;;;4998371;28;20049;-68
2022/04/21 10:00:31;;;;;;;0.08;0.08;;;20.40;79.90;;;;;;4998777;28;20065;-68
2022/04/21 10:02:59;;;;;;;0.20;0.20;;;20.70;79.50;;;;;;5008307;28;20061;-68
2022/04/21 10:05:25;;;;;;;0.20;0.20;;;20.80;79.30;;;;;;5009579;28;20131;-68
2022/04/21 10:07:52;;;;;;;0.20;0.20;;;20.80;80.60;;;;;;5011084;28;20524;-68
2022/04/21 10:10:18;;;;;;;0.10;0.10;;;20.90;80.50;;;;;;5018836;28;20077;-68
2022/04/21 10:12:44;;;;;;;6.47;1.15;;;21.10;78.80;;;;;;5012169;28;20077;-68
2022/04/21 10:15:10;;;;;;;0.20;0.20;;;21.00;79.60;;;;;;5003778;28;20132;-68
2022/04/21 10:17:37;;;;;;;0.28;0.28;;;21.20;80.90;;;;;;5007571;28;20045;-68
2022/04/21 10:20:03;;;;;;;0.10;0.10;;;21.00;80.10;;;;;;5017006;28;20077;-68
2022/04/21 10:22:32;;;;;;;0.00;0.00;;;21.10;81.00;;;;;;5004826;28;20519;-68
2022/04/21 10:24:58;;;;;;;0.00;0.00;;;21.20;80.70;;;;;;5009558;28;20519;-68
2022/04/21 10:27:37;;;;;;;0.35;0.20;;;21.10;80.60;;;;;;5010980;28;20046;-68
2022/04/21 10:30:11;;;;;;;0.00;0.00;;;20.70;79.90;;;;;;5013676;28;20041;-68
2022/04/21 10:33:01;;;;;;;0.45;0.38;;;20.80;80.00;;;;;;4993408;28;20220;-67
2022/04/21 10:35:33;;;;;;;0.75;0.65;;;20.50;78.20;;;;;;5006219;28;20126;-67
2022/04/21 10:38:14;;;;;;;1.65;0.98;;;20.60;80.50;;;;;;5009498;28;20125;-67
2022/04/21 10:41:07;;;;;;;0.00;0.00;;;20.60;81.20;;;;;;5006280;28;20503;-67
2022/04/21 10:43:50;;;;;;;0.00;0.00;;;20.40;78.50;;;;;;5004404;28;20046;-67
2022/04/21 10:46:21;;;;;;;0.20;0.20;;;20.30;80.50;;;;;;4994437;28;20434;-67
2022/04/21 10:48:47;;;;;;;0.00;0.00;;;20.60;80.60;;;;;;4992944;28;20104;-68
2022/04/21 10:51:41;;;;;;;0.47;0.47;;;20.80;83.00;;;;;;5003721;28;20068;-68
2022/04/21 11:00:01;;;;;;;0.00;0.00;;;20.70;82.00;;;;;;5024946;28;20707;-68
2022/04/21 11:02:38;;;;;;;0.30;0.30;;;20.80;79.20;;;;;;4991464;28;20601;-68
2022/04/21 11:05:33;;;;;;;0.60;0.47;;;20.80;79.80;;;;;;5009282;28;20052;-69
2022/04/21 11:08:23;;;;;;;2.92;0.63;;;20.80;80.70;;;;;;5008119;28;20802;-68
2022/04/21 11:10:48;;;;;;;3.40;0.70;;;20.60;80.20;;;;;;5006857;28;20057;-69
2022/04/21 11:13:19;;;;;;;0.00;0.00;;;20.60;80.60;;;;;;5017324;28;20096;-69
2022/04/21 11:15:45;;;;;;;0.30;0.30;;;20.60;82.80;;;;;;5009319;28;20104;-68
2022/04/21 11:18:12;;;;;;;0.30;0.30;;;20.40;81.90;;;;;;5000383;28;20121;-68
2022/04/21 11:20:40;;;;;;;0.10;0.10;;;20.40;81.70;;;;;;5008380;28;20671;-69
2022/04/21 11:23:10;;;;;;;0.98;0.93;;;20.90;83.60;;;;;;5010845;28;20056;-69
2022/04/21 11:25:36;;;;;;;3.60;0.32;;;20.60;82.10;;;;;;5009426;28;20034;-68
2022/04/21 11:28:02;;;;;;;14.70;2.20;;;20.40;81.60;;;;;;5009493;28;20045;-68
2022/04/21 11:30:32;;;;;;;0.95;0.32;;;20.50;81.50;;;;;;5009330;28;20060;-68
2022/04/21 11:32:59;;;;;;;0.10;0.10;;;20.40;81.00;;;;;;5009051;28;20056;-69
2022/04/21 11:35:25;;;;;;;0.00;0.00;;;20.40;82.80;;;;;;5006562;28;20453;-68
2022/04/21 11:37:58;;;;;;;0.88;0.45;;;20.70;81.90;;;;;;5008491;28;20088;-68
2022/04/21 11:40:28;;;;;;;0.35;0.35;;;20.80;82.90;;;;;;5000481;28;20060;-68
2022/04/21 11:42:56;;;;;;;0.22;0.22;;;21.10;82.20;;;;;;5007462;28;20536;-69
2022/04/21 11:45:24;;;;;;;0.55;0.52;;;21.30;82.30;;;;;;5012690;28;20046;-68
2022/04/21 11:47:51;;;;;;;0.10;0.10;;;21.30;82.10;;;;;;5010031;28;21621;-69
2022/04/21 11:50:24;;;;;;;0.00;0.00;;;21.30;81.20;;;;;;5013596;28;20532;-69
2022/04/21 11:52:52;;;;;;;0.32;0.32;;;21.20;80.80;;;;;;5018026;28;20038;-69
2022/04/21 11:55:23;;;;;;;0.10;0.10;;;21.30;82.50;;;;;;5013122;28;20560;-69
2022/04/21 11:57:49;;;;;;;0.10;0.10;;;21.60;81.10;;;;;;5014280;28;20080;-69
2022/04/21 12:00:16;;;;;;;0.35;0.20;;;21.70;81.30;;;;;;5044176;28;20485;-69
2022/04/21 12:08:29;;;;;;;0.28;0.28;;;21.50;79.40;;;;;;5012560;28;20061;-69
2022/04/21 12:10:55;;;;;;;0.65;0.60;;;21.40;79.90;;;;;;5017571;28;20492;-69
2022/04/21 12:13:20;;;;;;;0.10;0.10;;;21.50;79.10;;;;;;5027385;28;20066;-69
2022/04/21 12:15:46;;;;;;;0.77;0.40;;;21.90;81.60;;;;;;5005426;28;20545;-69
2022/04/21 12:18:11;;;;;;;0.00;0.00;;;21.70;80.40;;;;;;5013129;28;20080;-69
2022/04/21 12:20:54;;;;;;;2.05;0.47;;;21.70;79.40;;;;;;5008537;28;20081;-69
2022/04/21 12:23:25;;;;;;;0.10;0.10;;;22.20;81.10;;;;;;5011614;28;20081;-69
2022/04/21 12:25:50;;;;;;;1.02;0.47;;;21.90;80.00;;;;;;5009460;28;20046;-69
2022/04/21 12:28:16;;;;;;;0.00;0.00;;;21.70;80.30;;;;;;5010390;28;20041;-70
2022/04/21 12:30:41;;;;;;;0.10;0.10;;;21.90;79.90;;;;;;5006770;28;20084;-70
2022/04/21 12:33:07;;;;;;;0.00;0.00;;;21.90;81.50;;;;;;5010912;28;20046;-70
2022/04/21 12:35:51;;;;;;;0.00;0.00;;;22.00;81.10;;;;;;5012893;28;20048;-70
2022/04/21 12:41:01;;;;;;;0.25;0.22;;;21.90;80.10;;;;;;5012659;28;20133;-70
2022/04/21 12:43:29;;;;;;;0.17;0.17;;;22.00;81.40;;;;;;5012482;28;20128;-70
2022/04/21 12:45:57;;;;;;;0.10;0.10;;;22.30;81.70;;;;;;5013050;28;20383;-70
2022/04/21 12:48:27;;;;;;;0.32;0.32;;;22.20;79.30;;;;;;4996595;28;20406;-70
2022/04/21 12:50:55;;;;;;;0.38;0.38;;;22.20;81.60;;;;;;5013692;28;20049;-70
2022/04/21 12:53:29;;;;;;;0.08;0.08;;;21.90;80.00;;;;;;5013453;28;20124;-70
2022/04/21 12:55:56;;;;;;;0.08;0.08;;;22.30;79.30;;;;;;5010200;28;20053;-71
2022/04/21 12:58:31;;;;;;;0.00;0.00;;;22.40;79.70;;;;;;5012216;28;20057;-71
2022/04/21 13:01:00;;;;;;;0.17;0.17;;;22.30;79.80;;;;;;5010998;28;21547;-71
2022/04/21 13:03:27;;;;;;;0.63;0.20;;;22.20;78.10;;;;;;5011898;28;20104;-71
2022/04/21 13:05:55;;;;;;;0.00;0.00;;;22.20;79.00;;;;;;5010794;28;20053;-70
2022/04/21 13:08:22;;;;;;;0.00;0.00;;;22.00;79.60;;;;;;5011776;28;20108;-71
2022/04/21 13:10:49;;;;;;;0.00;0.00;;;22.40;77.90;;;;;;5006575;28;20092;-70
2022/04/21 13:13:14;;;;;;;0.00;0.00;;;22.80;78.60;;;;;;5009008;28;20496;-71
2022/04/21 13:15:40;;;;;;;0.20;0.20;;;22.90;77.50;;;;;;5008677;28;20049;-71
2022/04/21 13:18:06;;;;;;;0.00;0.00;;;22.50;77.80;;;;;;5009829;28;20046;-70
2022/04/21 13:23:16;;;;;;;0.05;0.05;;;22.20;78.50;;;;;;5004618;28;20084;-70
2022/04/21 13:25:42;;;;;;;1.15;0.13;;;21.70;77.60;;;;;;5007738;28;20066;-71
2022/04/21 13:28:09;;;;;;;0.00;0.00;;;20.80;78.90;;;;;;5016520;28;20054;-71
2022/04/21 13:30:34;;;;;;;0.10;0.10;;;21.80;79.90;;;;;;5012627;28;20068;-70
2022/04/21 13:35:44;;;;;;;0.00;0.00;;;22.20;77.80;;;;;;5011526;28;20056;-72
2022/04/21 13:38:09;;;;;;;1.02;0.73;;;22.20;77.10;;;;;;5031927;28;20046;-71
2022/04/21 13:40:35;;;;;;;0.00;0.00;;;21.80;78.60;;;;;;5015074;28;20042;-71
2022/04/21 13:43:01;;;;;;;0.30;0.30;;;21.80;77.70;;;;;;5012355;28;20453;-71
2022/04/21 13:45:26;;;;;;;1.65;0.38;;;21.90;79.30;;;;;;5009297;28;20048;-71
2022/04/21 13:47:52;;;;;;;2.80;0.70;;;22.00;79.20;;;;;;5011068;28;20397;-71
2022/04/21 13:50:18;;;;;;;0.05;0.05;;;22.30;78.00;;;;;;5011993;28;20377;-71
2022/04/21 13:52:44;;;;;;;0.70;0.63;;;22.20;77.40;;;;;;5008618;28;20049;-71